sensor_id;sensor_type;location;lat;lon;timestamp;P1;durP1;ratioP1;P2;durP2;ratioP2
31746;SDS011;18319;48.974;8.462;2023-02-28T00:01:30;2.00;;;1.57;;
31746;SDS011;18319;48.974;8.462;2023-02-28T00:03:58;2.00;;;1.90;;
31746;SDS011;18319;48.974;8.462;2023-02-28T00:06:25;2.47;;;2.27;;
31746;SDS011;18319;48.974;8.462;2023-02-28T00:08:52;3.57;;;2.33;;
31746;SDS011;18319;48.974;8.462;2023-02-28T00:11:19;2.30;;;2.20;;
31746;SDS011;18319;48.974;8.462;2023-02-28T00:13:48;2.40;;;2.20;;
31746;SDS011;18319;48.974;8.462;2023-02-28T00:16:16;3.20;;;2.90;;
31746;SDS011;18319;48.974;8.462;2023-02-28T00:18:44;2.40;;;2.30;;
31746;SDS011;18319;48.974;8.462;2023-02-28T00:21:12;2.27;;;2.03;;
31746;SDS011;18319;48.974;8.462;2023-02-28T00:23:40;2.43;;;2.33;;
31746;SDS011;18319;48.974;8.462;2023-02-28T00:26:06;2.90;;;2.70;;
31746;SDS011;18319;48.974;8.462;2023-02-28T00:28:33;2.27;;;2.17;;
31746;SDS011;18319;48.974;8.462;2023-02-28T00:31:01;3.67;;;2.20;;
31746;SDS011;18319;48.974;8.462;2023-02-28T00:33:28;2.50;;;2.30;;
31746;SDS011;18319;48.974;8.462;2023-02-28T00:36:01;2.23;;;2.13;;
31746;SDS011;18319;48.974;8.462;2023-02-28T00:38:29;3.40;;;2.23;;
31746;SDS011;18319;48.974;8.462;2023-02-28T00:40:56;2.80;;;2.60;;
31746;SDS011;18319;48.974;8.462;2023-02-28T00:43:23;2.63;;;2.50;;
31746;SDS011;18319;48.974;8.462;2023-02-28T00:45:50;2.00;;;1.90;;
31746;SDS011;18319;48.974;8.462;2023-02-28T00:48:18;2.77;;;2.57;;
31746;SDS011;18319;48.974;8.462;2023-02-28T00:50:47;2.40;;;2.30;;
31746;SDS011;18319;48.974;8.462;2023-02-28T00:53:15;2.77;;;2.40;;
31746;SDS011;18319;48.974;8.462;2023-02-28T00:55:41;2.47;;;2.30;;
31746;SDS011;18319;48.974;8.462;2023-02-28T00:58:08;3.40;;;2.10;;
31746;SDS011;18319;48.974;8.462;2023-02-28T01:00:35;3.03;;;2.30;;
31746;SDS011;18319;48.974;8.462;2023-02-28T01:03:02;2.97;;;2.13;;
31746;SDS011;18319;48.974;8.462;2023-02-28T01:05:30;3.10;;;2.80;;
31746;SDS011;18319;48.974;8.462;2023-02-28T01:07:57;2.30;;;2.20;;
31746;SDS011;18319;48.974;8.462;2023-02-28T01:10:24;2.67;;;2.30;;
31746;SDS011;18319;48.974;8.462;2023-02-28T01:12:51;3.30;;;2.60;;
31746;SDS011;18319;48.974;8.462;2023-02-28T01:15:18;4.17;;;2.30;;
31746;SDS011;18319;48.974;8.462;2023-02-28T01:17:44;2.13;;;2.03;;
31746;SDS011;18319;48.974;8.462;2023-02-28T01:20:11;2.47;;;2.33;;
31746;SDS011;18319;48.974;8.462;2023-02-28T01:22:40;4.27;;;2.30;;
31746;SDS011;18319;48.974;8.462;2023-02-28T01:25:07;2.73;;;2.53;;
31746;SDS011;18319;48.974;8.462;2023-02-28T01:27:34;2.80;;;2.60;;
31746;SDS011;18319;48.974;8.462;2023-02-28T01:30:01;3.80;;;2.30;;
31746;SDS011;18319;48.974;8.462;2023-02-28T01:32:28;3.17;;;2.73;;
31746;SDS011;18319;48.974;8.462;2023-02-28T01:34:54;1.97;;;1.87;;
31746;SDS011;18319;48.974;8.462;2023-02-28T01:37:21;2.83;;;2.63;;
31746;SDS011;18319;48.974;8.462;2023-02-28T01:39:49;2.80;;;2.47;;
31746;SDS011;18319;48.974;8.462;2023-02-28T01:42:16;3.10;;;2.03;;
31746;SDS011;18319;48.974;8.462;2023-02-28T01:44:59;2.23;;;2.10;;
31746;SDS011;18319;48.974;8.462;2023-02-28T01:47:30;1.87;;;1.70;;
31746;SDS011;18319;48.974;8.462;2023-02-28T01:49:59;2.30;;;2.20;;
31746;SDS011;18319;48.974;8.462;2023-02-28T01:52:28;2.57;;;2.37;;
31746;SDS011;18319;48.974;8.462;2023-02-28T01:54:58;2.80;;;2.60;;
31746;SDS011;18319;48.974;8.462;2023-02-28T01:57:28;2.63;;;2.43;;
31746;SDS011;18319;48.974;8.462;2023-02-28T02:00:03;3.23;;;2.50;;
31746;SDS011;18319;48.974;8.462;2023-02-28T02:02:34;2.87;;;2.53;;
31746;SDS011;18319;48.974;8.462;2023-02-28T02:05:03;2.63;;;2.43;;
31746;SDS011;18319;48.974;8.462;2023-02-28T02:07:32;2.13;;;2.03;;
31746;SDS011;18319;48.974;8.462;2023-02-28T02:10:05;2.13;;;2.03;;
31746;SDS011;18319;48.974;8.462;2023-02-28T02:12:41;2.13;;;2.03;;
31746;SDS011;18319;48.974;8.462;2023-02-28T02:15:30;2.70;;;2.50;;
31746;SDS011;18319;48.974;8.462;2023-02-28T02:18:02;2.93;;;2.40;;
31746;SDS011;18319;48.974;8.462;2023-02-28T02:20:46;3.43;;;2.40;;
31746;SDS011;18319;48.974;8.462;2023-02-28T02:23:28;2.67;;;2.47;;
31746;SDS011;18319;48.974;8.462;2023-02-28T02:29:18;4.27;;;2.40;;
31746;SDS011;18319;48.974;8.462;2023-02-28T02:32:28;2.07;;;1.97;;
31746;SDS011;18319;48.974;8.462;2023-02-28T02:35:13;2.60;;;2.37;;
31746;SDS011;18319;48.974;8.462;2023-02-28T02:37:43;2.87;;;2.67;;
31746;SDS011;18319;48.974;8.462;2023-02-28T02:40:17;2.90;;;2.20;;
31746;SDS011;18319;48.974;8.462;2023-02-28T02:42:49;3.43;;;2.70;;
31746;SDS011;18319;48.974;8.462;2023-02-28T02:45:23;4.73;;;2.10;;
31746;SDS011;18319;48.974;8.462;2023-02-28T02:47:52;2.70;;;2.53;;
31746;SDS011;18319;48.974;8.462;2023-02-28T02:50:24;2.87;;;2.23;;
31746;SDS011;18319;48.974;8.462;2023-02-28T02:52:55;3.50;;;2.70;;
31746;SDS011;18319;48.974;8.462;2023-02-28T02:55:25;3.17;;;2.70;;
31746;SDS011;18319;48.974;8.462;2023-02-28T02:57:53;2.40;;;2.23;;
31746;SDS011;18319;48.974;8.462;2023-02-28T03:00:25;3.57;;;2.70;;
31746;SDS011;18319;48.974;8.462;2023-02-28T03:02:56;3.30;;;2.73;;
31746;SDS011;18319;48.974;8.462;2023-02-28T03:05:25;3.23;;;3.03;;
31746;SDS011;18319;48.974;8.462;2023-02-28T03:07:54;2.60;;;2.40;;
31746;SDS011;18319;48.974;8.462;2023-02-28T03:10:28;4.47;;;2.73;;
31746;SDS011;18319;48.974;8.462;2023-02-28T03:13:00;2.67;;;2.47;;
31746;SDS011;18319;48.974;8.462;2023-02-28T03:15:48;2.80;;;2.60;;
31746;SDS011;18319;48.974;8.462;2023-02-28T03:18:24;4.67;;;2.83;;
31746;SDS011;18319;48.974;8.462;2023-02-28T03:21:03;2.43;;;2.23;;
31746;SDS011;18319;48.974;8.462;2023-02-28T03:23:36;2.93;;;2.73;;
31746;SDS011;18319;48.974;8.462;2023-02-28T03:26:11;3.30;;;2.57;;
31746;SDS011;18319;48.974;8.462;2023-02-28T03:28:47;3.13;;;2.57;;
31746;SDS011;18319;48.974;8.462;2023-02-28T03:31:19;3.03;;;2.83;;
31746;SDS011;18319;48.974;8.462;2023-02-28T03:33:49;3.00;;;2.70;;
31746;SDS011;18319;48.974;8.462;2023-02-28T03:36:24;2.97;;;2.77;;
31746;SDS011;18319;48.974;8.462;2023-02-28T03:38:55;3.20;;;2.90;;
31746;SDS011;18319;48.974;8.462;2023-02-28T03:41:29;2.80;;;2.60;;
31746;SDS011;18319;48.974;8.462;2023-02-28T03:43:59;3.97;;;3.47;;
31746;SDS011;18319;48.974;8.462;2023-02-28T03:46:31;3.50;;;2.83;;
31746;SDS011;18319;48.974;8.462;2023-02-28T03:49:02;3.00;;;2.67;;
31746;SDS011;18319;48.974;8.462;2023-02-28T03:51:37;5.13;;;2.77;;
31746;SDS011;18319;48.974;8.462;2023-02-28T03:54:07;3.43;;;3.00;;
31746;SDS011;18319;48.974;8.462;2023-02-28T03:56:39;5.00;;;2.87;;
31746;SDS011;18319;48.974;8.462;2023-02-28T03:59:10;3.87;;;2.67;;
31746;SDS011;18319;48.974;8.462;2023-02-28T04:01:41;2.97;;;2.77;;
31746;SDS011;18319;48.974;8.462;2023-02-28T04:04:10;3.30;;;3.00;;
31746;SDS011;18319;48.974;8.462;2023-02-28T04:06:40;3.37;;;2.47;;
31746;SDS011;18319;48.974;8.462;2023-02-28T04:09:08;4.67;;;3.50;;
31746;SDS011;18319;48.974;8.462;2023-02-28T04:11:37;4.00;;;3.33;;
31746;SDS011;18319;48.974;8.462;2023-02-28T04:14:06;3.13;;;2.93;;
31746;SDS011;18319;48.974;8.462;2023-02-28T04:16:34;3.80;;;3.50;;
31746;SDS011;18319;48.974;8.462;2023-02-28T04:19:03;3.13;;;1.80;;
31746;SDS011;18319;48.974;8.462;2023-02-28T04:21:32;3.10;;;2.90;;
31746;SDS011;18319;48.974;8.462;2023-02-28T04:24:02;3.07;;;2.80;;
31746;SDS011;18319;48.974;8.462;2023-02-28T04:26:29;3.00;;;2.80;;
31746;SDS011;18319;48.974;8.462;2023-02-28T04:28:57;3.03;;;2.83;;
31746;SDS011;18319;48.974;8.462;2023-02-28T04:31:24;3.60;;;3.30;;
31746;SDS011;18319;48.974;8.462;2023-02-28T04:33:51;3.53;;;3.23;;
31746;SDS011;18319;48.974;8.462;2023-02-28T04:36:18;3.40;;;3.03;;
31746;SDS011;18319;48.974;8.462;2023-02-28T04:38:45;4.53;;;3.27;;
31746;SDS011;18319;48.974;8.462;2023-02-28T04:41:13;3.57;;;3.27;;
31746;SDS011;18319;48.974;8.462;2023-02-28T04:43:41;4.00;;;3.53;;
31746;SDS011;18319;48.974;8.462;2023-02-28T04:46:08;3.10;;;2.63;;
31746;SDS011;18319;48.974;8.462;2023-02-28T04:48:36;3.30;;;3.10;;
31746;SDS011;18319;48.974;8.462;2023-02-28T04:51:05;2.93;;;2.73;;
31746;SDS011;18319;48.974;8.462;2023-02-28T04:53:33;3.30;;;3.00;;
31746;SDS011;18319;48.974;8.462;2023-02-28T04:56:00;3.73;;;2.63;;
31746;SDS011;18319;48.974;8.462;2023-02-28T04:58:28;3.73;;;2.40;;
31746;SDS011;18319;48.974;8.462;2023-02-28T05:01:00;3.87;;;3.57;;
31746;SDS011;18319;48.974;8.462;2023-02-28T05:03:28;3.63;;;2.90;;
31746;SDS011;18319;48.974;8.462;2023-02-28T05:05:54;4.67;;;3.37;;
31746;SDS011;18319;48.974;8.462;2023-02-28T05:08:21;4.53;;;3.43;;
31746;SDS011;18319;48.974;8.462;2023-02-28T05:10:48;3.10;;;2.67;;
31746;SDS011;18319;48.974;8.462;2023-02-28T05:13:15;3.37;;;3.07;;
31746;SDS011;18319;48.974;8.462;2023-02-28T05:15:43;3.63;;;3.33;;
31746;SDS011;18319;48.974;8.462;2023-02-28T05:18:09;2.77;;;2.57;;
31746;SDS011;18319;48.974;8.462;2023-02-28T05:20:36;3.87;;;3.50;;
31746;SDS011;18319;48.974;8.462;2023-02-28T05:23:03;3.17;;;2.97;;
31746;SDS011;18319;48.974;8.462;2023-02-28T05:25:30;3.83;;;3.43;;
31746;SDS011;18319;48.974;8.462;2023-02-28T05:27:56;3.83;;;3.37;;
31746;SDS011;18319;48.974;8.462;2023-02-28T05:30:24;5.03;;;3.60;;
31746;SDS011;18319;48.974;8.462;2023-02-28T05:32:52;3.73;;;3.43;;
31746;SDS011;18319;48.974;8.462;2023-02-28T05:35:18;4.33;;;3.93;;
31746;SDS011;18319;48.974;8.462;2023-02-28T05:37:45;3.53;;;3.23;;
31746;SDS011;18319;48.974;8.462;2023-02-28T05:40:12;3.37;;;3.07;;
31746;SDS011;18319;48.974;8.462;2023-02-28T05:42:40;5.77;;;3.83;;
31746;SDS011;18319;48.974;8.462;2023-02-28T05:45:07;5.87;;;3.63;;
31746;SDS011;18319;48.974;8.462;2023-02-28T05:47:35;4.30;;;3.20;;
31746;SDS011;18319;48.974;8.462;2023-02-28T05:50:03;3.50;;;3.20;;
31746;SDS011;18319;48.974;8.462;2023-02-28T05:52:31;3.97;;;3.60;;
31746;SDS011;18319;48.974;8.462;2023-02-28T05:54:58;3.27;;;3.07;;
31746;SDS011;18319;48.974;8.462;2023-02-28T05:57:25;3.73;;;3.33;;
31746;SDS011;18319;48.974;8.462;2023-02-28T05:59:52;5.40;;;3.17;;
31746;SDS011;18319;48.974;8.462;2023-02-28T06:02:18;4.83;;;3.93;;
31746;SDS011;18319;48.974;8.462;2023-02-28T06:04:45;3.57;;;3.37;;
31746;SDS011;18319;48.974;8.462;2023-02-28T06:07:13;3.40;;;3.03;;
31746;SDS011;18319;48.974;8.462;2023-02-28T06:09:42;4.87;;;2.93;;
31746;SDS011;18319;48.974;8.462;2023-02-28T06:12:09;3.30;;;3.00;;
31746;SDS011;18319;48.974;8.462;2023-02-28T06:14:36;5.30;;;3.80;;
31746;SDS011;18319;48.974;8.462;2023-02-28T06:17:03;4.10;;;3.80;;
31746;SDS011;18319;48.974;8.462;2023-02-28T06:19:30;3.90;;;3.60;;
31746;SDS011;18319;48.974;8.462;2023-02-28T06:21:57;3.57;;;3.27;;
31746;SDS011;18319;48.974;8.462;2023-02-28T06:24:26;3.77;;;3.40;;
31746;SDS011;18319;48.974;8.462;2023-02-28T06:26:53;3.97;;;3.37;;
31746;SDS011;18319;48.974;8.462;2023-02-28T06:29:21;4.13;;;3.33;;
31746;SDS011;18319;48.974;8.462;2023-02-28T06:31:48;5.30;;;4.13;;
31746;SDS011;18319;48.974;8.462;2023-02-28T06:34:15;4.13;;;3.70;;
31746;SDS011;18319;48.974;8.462;2023-02-28T06:36:43;4.97;;;3.33;;
31746;SDS011;18319;48.974;8.462;2023-02-28T06:39:10;3.07;;;2.87;;
31746;SDS011;18319;48.974;8.462;2023-02-28T06:41:38;4.70;;;4.30;;
31746;SDS011;18319;48.974;8.462;2023-02-28T06:44:05;4.43;;;3.37;;
31746;SDS011;18319;48.974;8.462;2023-02-28T06:46:38;3.60;;;3.30;;
31746;SDS011;18319;48.974;8.462;2023-02-28T06:49:05;4.60;;;4.10;;
31746;SDS011;18319;48.974;8.462;2023-02-28T06:51:34;4.90;;;3.80;;
31746;SDS011;18319;48.974;8.462;2023-02-28T06:54:02;4.10;;;3.70;;
31746;SDS011;18319;48.974;8.462;2023-02-28T06:56:29;3.87;;;3.50;;
31746;SDS011;18319;48.974;8.462;2023-02-28T06:58:57;4.57;;;3.57;;
31746;SDS011;18319;48.974;8.462;2023-02-28T07:01:24;5.13;;;4.00;;
31746;SDS011;18319;48.974;8.462;2023-02-28T07:03:50;5.47;;;3.90;;
31746;SDS011;18319;48.974;8.462;2023-02-28T07:06:18;5.77;;;3.43;;
31746;SDS011;18319;48.974;8.462;2023-02-28T07:08:47;5.73;;;4.00;;
31746;SDS011;18319;48.974;8.462;2023-02-28T07:11:13;4.70;;;4.10;;
31746;SDS011;18319;48.974;8.462;2023-02-28T07:13:40;5.07;;;4.03;;
31746;SDS011;18319;48.974;8.462;2023-02-28T07:16:09;4.00;;;3.27;;
31746;SDS011;18319;48.974;8.462;2023-02-28T07:18:37;3.83;;;3.53;;
31746;SDS011;18319;48.974;8.462;2023-02-28T07:21:04;4.60;;;3.53;;
31746;SDS011;18319;48.974;8.462;2023-02-28T07:23:33;4.47;;;4.07;;
31746;SDS011;18319;48.974;8.462;2023-02-28T07:26:00;4.00;;;3.60;;
31746;SDS011;18319;48.974;8.462;2023-02-28T07:28:27;5.03;;;3.80;;
31746;SDS011;18319;48.974;8.462;2023-02-28T07:30:54;4.53;;;4.10;;
31746;SDS011;18319;48.974;8.462;2023-02-28T07:33:22;4.30;;;3.93;;
31746;SDS011;18319;48.974;8.462;2023-02-28T07:35:49;4.83;;;4.17;;
31746;SDS011;18319;48.974;8.462;2023-02-28T07:38:16;5.00;;;4.33;;
31746;SDS011;18319;48.974;8.462;2023-02-28T07:40:43;7.03;;;3.80;;
31746;SDS011;18319;48.974;8.462;2023-02-28T07:43:10;4.30;;;3.90;;
31746;SDS011;18319;48.974;8.462;2023-02-28T07:45:36;3.53;;;3.10;;
31746;SDS011;18319;48.974;8.462;2023-02-28T07:48:03;3.87;;;3.60;;
31746;SDS011;18319;48.974;8.462;2023-02-28T07:50:31;6.40;;;4.03;;
31746;SDS011;18319;48.974;8.462;2023-02-28T07:52:59;4.33;;;3.80;;
31746;SDS011;18319;48.974;8.462;2023-02-28T07:55:26;6.60;;;4.30;;
31746;SDS011;18319;48.974;8.462;2023-02-28T07:57:53;4.13;;;3.80;;
31746;SDS011;18319;48.974;8.462;2023-02-28T08:00:20;4.10;;;3.80;;
31746;SDS011;18319;48.974;8.462;2023-02-28T08:02:47;5.37;;;4.87;;
31746;SDS011;18319;48.974;8.462;2023-02-28T08:05:14;4.93;;;4.53;;
31746;SDS011;18319;48.974;8.462;2023-02-28T08:07:43;4.93;;;4.07;;
31746;SDS011;18319;48.974;8.462;2023-02-28T08:10:10;4.30;;;3.97;;
31746;SDS011;18319;48.974;8.462;2023-02-28T08:12:37;4.03;;;3.63;;
31746;SDS011;18319;48.974;8.462;2023-02-28T08:15:04;5.87;;;3.53;;
31746;SDS011;18319;48.974;8.462;2023-02-28T08:17:31;4.50;;;4.13;;
31746;SDS011;18319;48.974;8.462;2023-02-28T08:19:58;4.80;;;4.37;;
31746;SDS011;18319;48.974;8.462;2023-02-28T08:22:25;5.13;;;4.77;;
31746;SDS011;18319;48.974;8.462;2023-02-28T08:24:53;5.23;;;4.73;;
31746;SDS011;18319;48.974;8.462;2023-02-28T08:27:20;5.30;;;4.80;;
31746;SDS011;18319;48.974;8.462;2023-02-28T08:29:46;5.93;;;4.07;;
31746;SDS011;18319;48.974;8.462;2023-02-28T08:32:13;6.20;;;4.60;;
31746;SDS011;18319;48.974;8.462;2023-02-28T08:34:40;5.20;;;4.60;;
31746;SDS011;18319;48.974;8.462;2023-02-28T08:37:07;4.33;;;3.93;;
31746;SDS011;18319;48.974;8.462;2023-02-28T08:39:34;4.47;;;4.00;;
31746;SDS011;18319;48.974;8.462;2023-02-28T08:42:03;4.13;;;3.43;;
31746;SDS011;18319;48.974;8.462;2023-02-28T08:44:30;4.43;;;4.13;;
31746;SDS011;18319;48.974;8.462;2023-02-28T08:46:57;4.43;;;4.03;;
31746;SDS011;18319;48.974;8.462;2023-02-28T08:49:24;8.93;;;5.60;;
31746;SDS011;18319;48.974;8.462;2023-02-28T08:51:50;5.23;;;4.73;;
31746;SDS011;18319;48.974;8.462;2023-02-28T08:54:17;6.20;;;5.60;;
31746;SDS011;18319;48.974;8.462;2023-02-28T08:56:44;6.63;;;6.03;;
31746;SDS011;18319;48.974;8.462;2023-02-28T08:59:13;5.93;;;5.33;;
31746;SDS011;18319;48.974;8.462;2023-02-28T09:01:40;6.27;;;5.50;;
31746;SDS011;18319;48.974;8.462;2023-02-28T09:04:08;6.77;;;4.47;;
31746;SDS011;18319;48.974;8.462;2023-02-28T09:06:36;5.63;;;4.77;;
31746;SDS011;18319;48.974;8.462;2023-02-28T09:09:04;5.93;;;5.33;;
31746;SDS011;18319;48.974;8.462;2023-02-28T09:11:32;5.90;;;4.50;;
31746;SDS011;18319;48.974;8.462;2023-02-28T09:13:59;4.63;;;4.23;;
31746;SDS011;18319;48.974;8.462;2023-02-28T09:16:29;5.83;;;5.00;;
31746;SDS011;18319;48.974;8.462;2023-02-28T09:18:57;6.47;;;4.97;;
31746;SDS011;18319;48.974;8.462;2023-02-28T09:21:24;6.20;;;5.60;;
31746;SDS011;18319;48.974;8.462;2023-02-28T09:23:51;5.37;;;4.87;;
31746;SDS011;18319;48.974;8.462;2023-02-28T09:26:18;5.13;;;4.60;;
31746;SDS011;18319;48.974;8.462;2023-02-28T09:28:47;5.07;;;4.57;;
31746;SDS011;18319;48.974;8.462;2023-02-28T09:31:15;5.17;;;4.67;;
31746;SDS011;18319;48.974;8.462;2023-02-28T09:33:47;5.13;;;4.73;;
31746;SDS011;18319;48.974;8.462;2023-02-28T09:36:14;6.90;;;4.43;;
31746;SDS011;18319;48.974;8.462;2023-02-28T09:38:40;6.33;;;4.73;;
31746;SDS011;18319;48.974;8.462;2023-02-28T09:41:10;6.40;;;5.17;;
31746;SDS011;18319;48.974;8.462;2023-02-28T09:43:40;4.97;;;4.57;;
31746;SDS011;18319;48.974;8.462;2023-02-28T09:46:13;5.73;;;5.17;;
31746;SDS011;18319;48.974;8.462;2023-02-28T09:48:48;5.80;;;5.30;;
31746;SDS011;18319;48.974;8.462;2023-02-28T09:51:23;5.40;;;4.93;;
31746;SDS011;18319;48.974;8.462;2023-02-28T09:53:56;5.53;;;4.83;;
31746;SDS011;18319;48.974;8.462;2023-02-28T09:56:24;8.27;;;6.27;;
31746;SDS011;18319;48.974;8.462;2023-02-28T09:58:54;5.63;;;4.90;;
31746;SDS011;18319;48.974;8.462;2023-02-28T10:01:27;6.53;;;5.87;;
31746;SDS011;18319;48.974;8.462;2023-02-28T10:04:03;6.33;;;5.27;;
31746;SDS011;18319;48.974;8.462;2023-02-28T10:06:39;7.73;;;6.67;;
31746;SDS011;18319;48.974;8.462;2023-02-28T10:09:11;6.67;;;5.83;;
31746;SDS011;18319;48.974;8.462;2023-02-28T10:11:43;7.03;;;6.20;;
31746;SDS011;18319;48.974;8.462;2023-02-28T10:14:13;7.67;;;5.47;;
31746;SDS011;18319;48.974;8.462;2023-02-28T10:16:43;6.50;;;5.90;;
31746;SDS011;18319;48.974;8.462;2023-02-28T10:19:19;6.60;;;5.17;;
31746;SDS011;18319;48.974;8.462;2023-02-28T10:21:49;6.50;;;5.87;;
31746;SDS011;18319;48.974;8.462;2023-02-28T10:24:23;5.77;;;5.17;;
31746;SDS011;18319;48.974;8.462;2023-02-28T10:26:56;8.90;;;6.13;;
31746;SDS011;18319;48.974;8.462;2023-02-28T10:29:26;5.87;;;5.27;;
31746;SDS011;18319;48.974;8.462;2023-02-28T10:31:54;6.10;;;5.50;;
31746;SDS011;18319;48.974;8.462;2023-02-28T10:34:23;5.80;;;5.20;;
31746;SDS011;18319;48.974;8.462;2023-02-28T10:36:51;8.93;;;6.93;;
31746;SDS011;18319;48.974;8.462;2023-02-28T10:39:33;6.07;;;5.47;;
31746;SDS011;18319;48.974;8.462;2023-02-28T10:42:04;7.30;;;6.10;;
31746;SDS011;18319;48.974;8.462;2023-02-28T10:44:44;8.40;;;5.23;;
31746;SDS011;18319;48.974;8.462;2023-02-28T10:47:13;7.53;;;5.73;;
31746;SDS011;18319;48.974;8.462;2023-02-28T10:49:42;8.60;;;5.70;;
31746;SDS011;18319;48.974;8.462;2023-02-28T10:52:13;7.43;;;5.30;;
31746;SDS011;18319;48.974;8.462;2023-02-28T10:55:13;6.67;;;5.70;;
31746;SDS011;18319;48.974;8.462;2023-02-28T10:57:42;6.10;;;5.60;;
31746;SDS011;18319;48.974;8.462;2023-02-28T11:00:13;7.47;;;5.63;;
31746;SDS011;18319;48.974;8.462;2023-02-28T11:02:44;7.00;;;6.27;;
31746;SDS011;18319;48.974;8.462;2023-02-28T11:05:26;6.67;;;5.93;;
31746;SDS011;18319;48.974;8.462;2023-02-28T11:07:59;7.50;;;5.80;;
31746;SDS011;18319;48.974;8.462;2023-02-28T11:10:32;7.83;;;5.57;;
31746;SDS011;18319;48.974;8.462;2023-02-28T11:13:00;9.27;;;6.20;;
31746;SDS011;18319;48.974;8.462;2023-02-28T11:15:28;7.07;;;6.37;;
31746;SDS011;18319;48.974;8.462;2023-02-28T11:17:57;8.93;;;5.40;;
31746;SDS011;18319;48.974;8.462;2023-02-28T11:20:28;5.73;;;5.10;;
31746;SDS011;18319;48.974;8.462;2023-02-28T11:22:58;6.37;;;5.73;;
31746;SDS011;18319;48.974;8.462;2023-02-28T11:25:28;7.53;;;5.70;;
31746;SDS011;18319;48.974;8.462;2023-02-28T11:27:58;6.13;;;5.50;;
31746;SDS011;18319;48.974;8.462;2023-02-28T11:30:28;8.43;;;6.10;;
31746;SDS011;18319;48.974;8.462;2023-02-28T11:32:59;7.20;;;5.83;;
31746;SDS011;18319;48.974;8.462;2023-02-28T11:35:27;6.77;;;5.77;;
31746;SDS011;18319;48.974;8.462;2023-02-28T11:37:58;6.33;;;5.63;;
31746;SDS011;18319;48.974;8.462;2023-02-28T11:40:29;6.33;;;5.47;;
31746;SDS011;18319;48.974;8.462;2023-02-28T11:43:07;7.77;;;7.07;;
31746;SDS011;18319;48.974;8.462;2023-02-28T11:45:53;6.57;;;5.97;;
31746;SDS011;18319;48.974;8.462;2023-02-28T11:48:37;6.83;;;6.23;;
31746;SDS011;18319;48.974;8.462;2023-02-28T11:51:15;7.03;;;6.33;;
31746;SDS011;18319;48.974;8.462;2023-02-28T11:53:50;7.87;;;6.30;;
31746;SDS011;18319;48.974;8.462;2023-02-28T11:56:25;6.97;;;6.27;;
31746;SDS011;18319;48.974;8.462;2023-02-28T11:59:01;7.80;;;6.13;;
31746;SDS011;18319;48.974;8.462;2023-02-28T12:01:47;7.93;;;6.67;;
31746;SDS011;18319;48.974;8.462;2023-02-28T12:04:29;6.60;;;6.00;;
31746;SDS011;18319;48.974;8.462;2023-02-28T12:07:06;8.17;;;5.70;;
31746;SDS011;18319;48.974;8.462;2023-02-28T12:09:44;6.47;;;5.90;;
31746;SDS011;18319;48.974;8.462;2023-02-28T12:12:21;9.00;;;6.37;;
31746;SDS011;18319;48.974;8.462;2023-02-28T12:15:01;7.63;;;6.53;;
31746;SDS011;18319;48.974;8.462;2023-02-28T12:17:50;7.30;;;6.37;;
31746;SDS011;18319;48.974;8.462;2023-02-28T12:20:29;7.03;;;5.90;;
31746;SDS011;18319;48.974;8.462;2023-02-28T12:23:06;7.43;;;6.47;;
31746;SDS011;18319;48.974;8.462;2023-02-28T12:25:50;6.37;;;5.77;;
31746;SDS011;18319;48.974;8.462;2023-02-28T12:28:30;6.77;;;6.07;;
31746;SDS011;18319;48.974;8.462;2023-02-28T12:31:00;7.87;;;6.07;;
31746;SDS011;18319;48.974;8.462;2023-02-28T12:33:32;8.97;;;7.00;;
31746;SDS011;18319;48.974;8.462;2023-02-28T12:36:03;6.47;;;5.97;;
31746;SDS011;18319;48.974;8.462;2023-02-28T12:38:39;7.17;;;6.47;;
31746;SDS011;18319;48.974;8.462;2023-02-28T12:41:10;7.30;;;6.57;;
31746;SDS011;18319;48.974;8.462;2023-02-28T12:43:41;7.83;;;5.80;;
31746;SDS011;18319;48.974;8.462;2023-02-28T12:46:12;8.97;;;6.63;;
31746;SDS011;18319;48.974;8.462;2023-02-28T12:48:43;6.80;;;6.20;;
31746;SDS011;18319;48.974;8.462;2023-02-28T12:51:14;6.47;;;5.80;;
31746;SDS011;18319;48.974;8.462;2023-02-28T12:53:48;7.90;;;6.00;;
31746;SDS011;18319;48.974;8.462;2023-02-28T12:56:29;6.97;;;6.30;;
31746;SDS011;18319;48.974;8.462;2023-02-28T12:59:03;6.80;;;6.03;;
31746;SDS011;18319;48.974;8.462;2023-02-28T13:01:42;7.90;;;7.07;;
31746;SDS011;18319;48.974;8.462;2023-02-28T13:04:29;6.93;;;6.07;;
31746;SDS011;18319;48.974;8.462;2023-02-28T13:10:05;8.27;;;6.27;;
31746;SDS011;18319;48.974;8.462;2023-02-28T13:12:33;6.87;;;6.20;;
31746;SDS011;18319;48.974;8.462;2023-02-28T13:15:03;7.57;;;6.47;;
31746;SDS011;18319;48.974;8.462;2023-02-28T13:17:37;6.60;;;5.97;;
31746;SDS011;18319;48.974;8.462;2023-02-28T13:20:14;6.93;;;6.33;;
31746;SDS011;18319;48.974;8.462;2023-02-28T13:22:43;6.43;;;5.83;;
31746;SDS011;18319;48.974;8.462;2023-02-28T13:31:33;7.37;;;6.27;;
31746;SDS011;18319;48.974;8.462;2023-02-28T13:34:40;6.20;;;5.60;;
31746;SDS011;18319;48.974;8.462;2023-02-28T13:37:32;6.67;;;5.83;;
31746;SDS011;18319;48.974;8.462;2023-02-28T13:40:14;6.80;;;5.77;;
31746;SDS011;18319;48.974;8.462;2023-02-28T13:42:53;7.70;;;6.77;;
31746;SDS011;18319;48.974;8.462;2023-02-28T13:45:29;6.43;;;5.93;;
31746;SDS011;18319;48.974;8.462;2023-02-28T13:48:03;7.00;;;5.90;;
31746;SDS011;18319;48.974;8.462;2023-02-28T13:50:41;8.00;;;7.27;;
31746;SDS011;18319;48.974;8.462;2023-02-28T13:56:07;6.23;;;5.63;;
31746;SDS011;18319;48.974;8.462;2023-02-28T13:58:49;6.70;;;6.00;;
31746;SDS011;18319;48.974;8.462;2023-02-28T14:07:10;7.70;;;6.93;;
31746;SDS011;18319;48.974;8.462;2023-02-28T14:09:47;9.23;;;7.27;;
31746;SDS011;18319;48.974;8.462;2023-02-28T14:15:26;8.53;;;7.00;;
31746;SDS011;18319;48.974;8.462;2023-02-28T14:18:20;9.17;;;6.97;;
31746;SDS011;18319;48.974;8.462;2023-02-28T14:23:50;7.87;;;6.07;;
31746;SDS011;18319;48.974;8.462;2023-02-28T14:26:32;7.60;;;6.73;;
31746;SDS011;18319;48.974;8.462;2023-02-28T14:29:14;7.93;;;6.43;;
31746;SDS011;18319;48.974;8.462;2023-02-28T14:31:51;8.80;;;7.73;;
31746;SDS011;18319;48.974;8.462;2023-02-28T14:34:26;7.90;;;7.13;;
31746;SDS011;18319;48.974;8.462;2023-02-28T14:37:02;8.40;;;6.77;;
31746;SDS011;18319;48.974;8.462;2023-02-28T14:39:31;9.53;;;7.23;;
31746;SDS011;18319;48.974;8.462;2023-02-28T14:41:59;7.17;;;6.47;;
31746;SDS011;18319;48.974;8.462;2023-02-28T14:44:29;7.17;;;6.53;;
31746;SDS011;18319;48.974;8.462;2023-02-28T14:46:57;7.23;;;6.40;;
31746;SDS011;18319;48.974;8.462;2023-02-28T14:49:30;8.27;;;6.80;;
31746;SDS011;18319;48.974;8.462;2023-02-28T14:52:05;9.63;;;7.37;;
31746;SDS011;18319;48.974;8.462;2023-02-28T14:54:37;7.93;;;7.13;;
31746;SDS011;18319;48.974;8.462;2023-02-28T14:57:04;8.83;;;7.30;;
31746;SDS011;18319;48.974;8.462;2023-02-28T14:59:32;8.67;;;7.67;;
31746;SDS011;18319;48.974;8.462;2023-02-28T15:02:19;10.47;;;7.00;;
31746;SDS011;18319;48.974;8.462;2023-02-28T15:04:54;9.53;;;6.50;;
31746;SDS011;18319;48.974;8.462;2023-02-28T15:07:22;10.30;;;6.90;;
31746;SDS011;18319;48.974;8.462;2023-02-28T15:10:08;7.53;;;6.83;;
31746;SDS011;18319;48.974;8.462;2023-02-28T15:12:37;7.73;;;7.03;;
31746;SDS011;18319;48.974;8.462;2023-02-28T15:15:05;8.23;;;7.33;;
31746;SDS011;18319;48.974;8.462;2023-02-28T15:17:40;8.40;;;7.60;;
31746;SDS011;18319;48.974;8.462;2023-02-28T15:20:10;8.43;;;7.10;;
31746;SDS011;18319;48.974;8.462;2023-02-28T15:22:39;8.90;;;7.23;;
31746;SDS011;18319;48.974;8.462;2023-02-28T15:25:09;8.23;;;7.37;;
31746;SDS011;18319;48.974;8.462;2023-02-28T15:27:42;10.30;;;6.60;;
31746;SDS011;18319;48.974;8.462;2023-02-28T15:30:15;7.20;;;6.50;;
31746;SDS011;18319;48.974;8.462;2023-02-28T15:32:43;8.23;;;7.37;;
31746;SDS011;18319;48.974;8.462;2023-02-28T15:35:18;9.17;;;8.23;;
31746;SDS011;18319;48.974;8.462;2023-02-28T15:37:47;7.77;;;6.97;;